sensor_id;sensor_type;location;lat;lon;timestamp;pressure;altitude;pressure_sealevel;temperature;humidity
45763;BME280;37512;52.408;13.356;2023-05-01T00:03:46;101627.56;;;7.15;100.00
45763;BME280;37512;52.408;13.356;2023-05-01T00:07:48;101630.44;;;7.01;100.00
45763;BME280;37512;52.408;13.356;2023-05-01T00:11:49;101623.88;;;6.88;100.00
45763;BME280;37512;52.408;13.356;2023-05-01T00:15:51;101624.41;;;6.68;100.00
45763;BME280;37512;52.408;13.356;2023-05-01T00:19:54;101629.31;;;6.71;100.00
45763;BME280;37512;52.408;13.356;2023-05-01T00:23:56;101622.16;;;6.70;100.00
45763;BME280;37512;52.408;13.356;2023-05-01T00:27:57;101622.16;;;6.70;100.00
45763;BME280;37512;52.408;13.356;2023-05-01T00:32:00;101622.16;;;6.70;100.00
45763;BME280;37512;52.408;13.356;2023-05-01T00:36:01;101618.31;;;6.48;100.00
45763;BME280;37512;52.408;13.356;2023-05-01T00:40:04;70141.72;;;-146.77;100.00
45763;BME280;37512;52.408;13.356;2023-05-01T00:44:06;70141.72;;;-146.77;100.00
45763;BME280;37512;52.408;13.356;2023-05-01T00:48:08;70141.72;;;-146.77;100.00
45763;BME280;37512;52.408;13.356;2023-05-01T00:52:10;70141.72;;;-146.77;100.00
45763;BME280;37512;52.408;13.356;2023-05-01T00:56:12;70141.72;;;-146.77;100.00
45763;BME280;37512;52.408;13.356;2023-05-01T01:00:14;70141.72;;;-146.77;100.00
45763;BME280;37512;52.408;13.356;2023-05-01T01:04:17;70141.72;;;-146.77;100.00
45763;BME280;37512;52.408;13.356;2023-05-01T01:08:32;70141.72;;;-146.77;100.00
45763;BME280;37512;52.408;13.356;2023-05-01T01:13:17;70141.72;;;-146.77;100.00
45763;BME280;37512;52.408;13.356;2023-05-01T01:17:29;70141.72;;;-146.77;100.00
45763;BME280;37512;52.408;13.356;2023-05-01T01:21:40;70141.72;;;-146.77;100.00
45763;BME280;37512;52.408;13.356;2023-05-01T01:30:26;70141.72;;;-146.77;100.00
45763;BME280;37512;52.408;13.356;2023-05-01T01:34:39;70141.72;;;-146.77;100.00
45763;BME280;37512;52.408;13.356;2023-05-01T01:38:57;70141.72;;;-146.77;100.00
45763;BME280;37512;52.408;13.356;2023-05-01T01:43:04;70141.72;;;-146.77;100.00
45763;BME280;37512;52.408;13.356;2023-05-01T01:47:11;70141.72;;;-146.77;100.00
45763;BME280;37512;52.408;13.356;2023-05-01T01:51:17;70141.72;;;-146.77;100.00
45763;BME280;37512;52.408;13.356;2023-05-01T01:55:21;70141.72;;;-146.77;100.00
45763;BME280;37512;52.408;13.356;2023-05-01T01:59:26;70141.72;;;-146.77;100.00
45763;BME280;37512;52.408;13.356;2023-05-01T02:03:32;70141.72;;;-146.77;100.00
45763;BME280;37512;52.408;13.356;2023-05-01T02:07:36;70141.72;;;-146.77;100.00
45763;BME280;37512;52.408;13.356;2023-05-01T02:11:41;70141.72;;;-146.77;100.00
45763;BME280;37512;52.408;13.356;2023-05-01T02:15:44;70141.72;;;-146.77;100.00
45763;BME280;37512;52.408;13.356;2023-05-01T02:19:46;70141.72;;;-146.77;100.00
45763;BME280;37512;52.408;13.356;2023-05-01T02:23:48;70141.72;;;-146.77;100.00
45763;BME280;37512;52.408;13.356;2023-05-01T02:27:55;70141.72;;;-146.77;100.00
45763;BME280;37512;52.408;13.356;2023-05-01T02:31:58;70141.72;;;-146.77;100.00
45763;BME280;37512;52.408;13.356;2023-05-01T02:36:00;70141.72;;;-146.77;100.00
45763;BME280;37512;52.408;13.356;2023-05-01T02:40:02;70141.72;;;-146.77;100.00
45763;BME280;37512;52.408;13.356;2023-05-01T02:44:06;70141.72;;;-146.77;100.00
45763;BME280;37512;52.408;13.356;2023-05-01T02:48:09;70141.72;;;-146.77;100.00
45763;BME280;37512;52.408;13.356;2023-05-01T02:52:18;70141.72;;;-146.77;100.00
45763;BME280;37512;52.408;13.356;2023-05-01T02:56:20;70141.72;;;-146.77;100.00
45763;BME280;37512;52.408;13.356;2023-05-01T03:00:21;70141.72;;;-146.77;100.00
45763;BME280;37512;52.408;13.356;2023-05-01T03:04:23;70141.72;;;-146.77;100.00
45763;BME280;37512;52.408;13.356;2023-05-01T03:08:25;70141.72;;;-146.77;100.00
45763;BME280;37512;52.408;13.356;2023-05-01T03:12:26;70141.72;;;-146.77;100.00
45763;BME280;37512;52.408;13.356;2023-05-01T03:16:28;70141.72;;;-146.77;100.00
45763;BME280;37512;52.408;13.356;2023-05-01T03:20:29;70141.72;;;-146.77;100.00
45763;BME280;37512;52.408;13.356;2023-05-01T03:24:31;70141.72;;;-146.77;100.00
45763;BME280;37512;52.408;13.356;2023-05-01T03:28:32;70141.72;;;-146.77;100.00
45763;BME280;37512;52.408;13.356;2023-05-01T03:32:34;70141.72;;;-146.77;100.00
45763;BME280;37512;52.408;13.356;2023-05-01T03:36:37;70141.72;;;-146.77;100.00
45763;BME280;37512;52.408;13.356;2023-05-01T03:40:39;70141.72;;;-146.77;100.00
45763;BME280;37512;52.408;13.356;2023-05-01T03:44:41;70141.72;;;-146.77;100.00
45763;BME280;37512;52.408;13.356;2023-05-01T03:48:42;70141.72;;;-146.77;100.00
45763;BME280;37512;52.408;13.356;2023-05-01T03:52:44;70141.72;;;-146.77;100.00
45763;BME280;37512;52.408;13.356;2023-05-01T03:56:45;70141.72;;;-146.77;100.00
45763;BME280;37512;52.408;13.356;2023-05-01T04:00:47;70141.72;;;-146.77;100.00
45763;BME280;37512;52.408;13.356;2023-05-01T04:04:51;70141.72;;;-146.77;100.00
45763;BME280;37512;52.408;13.356;2023-05-01T04:08:56;70141.72;;;-146.77;100.00
45763;BME280;37512;52.408;13.356;2023-05-01T04:12:58;70141.72;;;-146.77;100.00
45763;BME280;37512;52.408;13.356;2023-05-01T04:16:59;70141.72;;;-146.77;100.00
45763;BME280;37512;52.408;13.356;2023-05-01T04:21:01;70141.72;;;-146.77;100.00
45763;BME280;37512;52.408;13.356;2023-05-01T04:25:03;70141.72;;;-146.77;100.00
45763;BME280;37512;52.408;13.356;2023-05-01T04:29:05;70141.72;;;-146.77;100.00
45763;BME280;37512;52.408;13.356;2023-05-01T04:33:06;70141.72;;;-146.77;100.00
45763;BME280;37512;52.408;13.356;2023-05-01T04:37:11;70141.72;;;-146.77;100.00
45763;BME280;37512;52.408;13.356;2023-05-01T04:41:16;70141.72;;;-146.77;100.00
45763;BME280;37512;52.408;13.356;2023-05-01T04:45:19;70141.72;;;-146.77;100.00
45763;BME280;37512;52.408;13.356;2023-05-01T04:49:21;70141.72;;;-146.77;100.00
45763;BME280;37512;52.408;13.356;2023-05-01T04:53:22;70141.72;;;-146.77;100.00
45763;BME280;37512;52.408;13.356;2023-05-01T04:57:23;70141.72;;;-146.77;100.00
45763;BME280;37512;52.408;13.356;2023-05-01T05:01:26;70141.72;;;-146.77;100.00
45763;BME280;37512;52.408;13.356;2023-05-01T05:05:28;70141.72;;;-146.77;100.00
45763;BME280;37512;52.408;13.356;2023-05-01T05:09:29;70141.72;;;-146.77;100.00
45763;BME280;37512;52.408;13.356;2023-05-01T05:13:30;70141.72;;;-146.77;100.00
45763;BME280;37512;52.408;13.356;2023-05-01T05:17:32;70141.72;;;-146.77;100.00
45763;BME280;37512;52.408;13.356;2023-05-01T05:21:34;70141.72;;;-146.77;100.00
45763;BME280;37512;52.408;13.356;2023-05-01T05:25:35;70141.72;;;-146.77;100.00
45763;BME280;37512;52.408;13.356;2023-05-01T05:29:38;70141.72;;;-146.77;100.00
45763;BME280;37512;52.408;13.356;2023-05-01T05:33:41;70141.72;;;-146.77;100.00
45763;BME280;37512;52.408;13.356;2023-05-01T05:37:43;70141.72;;;-146.77;100.00
45763;BME280;37512;52.408;13.356;2023-05-01T05:41:46;70141.72;;;-146.77;100.00
45763;BME280;37512;52.408;13.356;2023-05-01T05:45:49;70141.72;;;-146.77;100.00
45763;BME280;37512;52.408;13.356;2023-05-01T05:49:51;70141.72;;;-146.77;100.00
45763;BME280;37512;52.408;13.356;2023-05-01T05:53:52;70141.72;;;-146.77;100.00
45763;BME280;37512;52.408;13.356;2023-05-01T05:57:54;70141.72;;;-146.77;100.00
45763;BME280;37512;52.408;13.356;2023-05-01T06:01:55;70141.72;;;-146.77;100.00
45763;BME280;37512;52.408;13.356;2023-05-01T06:05:57;70141.72;;;-146.77;100.00
45763;BME280;37512;52.408;13.356;2023-05-01T06:09:59;70141.72;;;-146.77;100.00
45763;BME280;37512;52.408;13.356;2023-05-01T06:14:04;70141.72;;;-146.77;100.00
45763;BME280;37512;52.408;13.356;2023-05-01T06:18:06;70141.72;;;-146.77;100.00
45763;BME280;37512;52.408;13.356;2023-05-01T06:22:08;70141.72;;;-146.77;100.00
45763;BME280;37512;52.408;13.356;2023-05-01T06:26:09;70141.72;;;-146.77;100.00
45763;BME280;37512;52.408;13.356;2023-05-01T06:30:11;70141.72;;;-146.77;100.00
45763;BME280;37512;52.408;13.356;2023-05-01T06:34:13;70141.72;;;-146.77;100.00
45763;BME280;37512;52.408;13.356;2023-05-01T06:38:14;70141.72;;;-146.77;100.00
45763;BME280;37512;52.408;13.356;2023-05-01T06:42:16;70141.72;;;-146.77;100.00
45763;BME280;37512;52.408;13.356;2023-05-01T06:46:18;70141.72;;;-146.77;100.00
45763;BME280;37512;52.408;13.356;2023-05-01T06:50:19;70141.72;;;-146.77;100.00
45763;BME280;37512;52.408;13.356;2023-05-01T06:54:21;70141.72;;;-146.77;100.00
45763;BME280;37512;52.408;13.356;2023-05-01T06:58:22;70141.72;;;-146.77;100.00
45763;BME280;37512;52.408;13.356;2023-05-01T07:02:25;70141.72;;;-146.77;100.00
45763;BME280;37512;52.408;13.356;2023-05-01T07:06:26;70141.72;;;-146.77;100.00
45763;BME280;37512;52.408;13.356;2023-05-01T07:10:29;70141.72;;;-146.77;100.00
45763;BME280;37512;52.408;13.356;2023-05-01T07:14:31;70141.72;;;-146.77;100.00
45763;BME280;37512;52.408;13.356;2023-05-01T07:18:32;70141.72;;;-146.77;100.00
45763;BME280;37512;52.408;13.356;2023-05-01T07:22:34;70141.72;;;-146.77;100.00
45763;BME280;37512;52.408;13.356;2023-05-01T07:26:36;70141.72;;;-146.77;100.00
45763;BME280;37512;52.408;13.356;2023-05-01T07:30:38;70141.72;;;-146.77;100.00
45763;BME280;37512;52.408;13.356;2023-05-01T07:34:40;70141.72;;;-146.77;100.00
45763;BME280;37512;52.408;13.356;2023-05-01T07:38:41;70141.72;;;-146.77;100.00
45763;BME280;37512;52.408;13.356;2023-05-01T07:42:43;70141.72;;;-146.77;100.00
45763;BME280;37512;52.408;13.356;2023-05-01T07:46:45;70141.72;;;-146.77;100.00
45763;BME280;37512;52.408;13.356;2023-05-01T07:50:46;70141.72;;;-146.77;100.00
45763;BME280;37512;52.408;13.356;2023-05-01T07:54:49;70141.72;;;-146.77;100.00
45763;BME280;37512;52.408;13.356;2023-05-01T07:58:51;70141.72;;;-146.77;100.00
45763;BME280;37512;52.408;13.356;2023-05-01T08:02:52;70141.72;;;-146.77;100.00
45763;BME280;37512;52.408;13.356;2023-05-01T08:06:54;70141.72;;;-146.77;100.00
45763;BME280;37512;52.408;13.356;2023-05-01T08:10:56;70141.72;;;-146.77;100.00
45763;BME280;37512;52.408;13.356;2023-05-01T08:14:57;70141.72;;;-146.77;100.00
45763;BME280;37512;52.408;13.356;2023-05-01T08:18:59;70141.72;;;-146.77;100.00
45763;BME280;37512;52.408;13.356;2023-05-01T08:23:01;70141.72;;;-146.77;100.00
45763;BME280;37512;52.408;13.356;2023-05-01T08:27:03;70141.72;;;-146.77;100.00
45763;BME280;37512;52.408;13.356;2023-05-01T08:31:04;70141.72;;;-146.77;100.00
45763;BME280;37512;52.408;13.356;2023-05-01T08:35:06;70141.72;;;-146.77;100.00
45763;BME280;37512;52.408;13.356;2023-05-01T08:39:08;70141.72;;;-146.77;100.00
45763;BME280;37512;52.408;13.356;2023-05-01T08:43:09;70141.72;;;-146.77;100.00
45763;BME280;37512;52.408;13.356;2023-05-01T08:47:16;70141.72;;;-146.77;100.00
45763;BME280;37512;52.408;13.356;2023-05-01T08:51:18;70141.72;;;-146.77;100.00
45763;BME280;37512;52.408;13.356;2023-05-01T08:55:24;70141.72;;;-146.77;100.00
45763;BME280;37512;52.408;13.356;2023-05-01T08:59:26;70141.72;;;-146.77;100.00
45763;BME280;37512;52.408;13.356;2023-05-01T09:03:30;70141.72;;;-146.77;100.00
45763;BME280;37512;52.408;13.356;2023-05-01T09:07:33;70141.72;;;-146.77;100.00
45763;BME280;37512;52.408;13.356;2023-05-01T09:11:35;70141.72;;;-146.77;100.00
45763;BME280;37512;52.408;13.356;2023-05-01T09:15:37;70141.72;;;-146.77;100.00
45763;BME280;37512;52.408;13.356;2023-05-01T09:19:38;70141.72;;;-146.77;100.00
45763;BME280;37512;52.408;13.356;2023-05-01T09:23:41;70141.72;;;-146.77;100.00
45763;BME280;37512;52.408;13.356;2023-05-01T09:27:43;70141.72;;;-146.77;100.00
45763;BME280;37512;52.408;13.356;2023-05-01T09:31:44;70141.72;;;-146.77;100.00
45763;BME280;37512;52.408;13.356;2023-05-01T09:35:54;70141.72;;;-146.77;100.00
45763;BME280;37512;52.408;13.356;2023-05-01T09:40:06;70141.72;;;-146.77;100.00
45763;BME280;37512;52.408;13.356;2023-05-01T09:44:16;70141.72;;;-146.77;100.00
45763;BME280;37512;52.408;13.356;2023-05-01T09:48:19;70141.72;;;-146.77;100.00
45763;BME280;37512;52.408;13.356;2023-05-01T09:52:25;70141.72;;;-146.77;100.00
45763;BME280;37512;52.408;13.356;2023-05-01T09:56:28;70141.72;;;-146.77;100.00
45763;BME280;37512;52.408;13.356;2023-05-01T10:00:30;70141.72;;;-146.77;100.00
45763;BME280;37512;52.408;13.356;2023-05-01T10:04:33;70141.72;;;-146.77;100.00
45763;BME280;37512;52.408;13.356;2023-05-01T10:08:48;70141.72;;;-146.77;100.00
45763;BME280;37512;52.408;13.356;2023-05-01T10:12:50;70141.72;;;-146.77;100.00
45763;BME280;37512;52.408;13.356;2023-05-01T10:16:52;70141.72;;;-146.77;100.00
45763;BME280;37512;52.408;13.356;2023-05-01T10:20:54;70141.72;;;-146.77;100.00
45763;BME280;37512;52.408;13.356;2023-05-01T10:24:55;70141.72;;;-146.77;100.00
45763;BME280;37512;52.408;13.356;2023-05-01T10:29:00;70141.72;;;-146.77;100.00
45763;BME280;37512;52.408;13.356;2023-05-01T10:33:03;70141.72;;;-146.77;100.00
45763;BME280;37512;52.408;13.356;2023-05-01T10:50:21;70141.72;;;-146.77;100.00
45763;BME280;37512;52.408;13.356;2023-05-01T11:02:37;70141.72;;;-146.77;100.00
45763;BME280;37512;52.408;13.356;2023-05-01T11:15:30;70141.72;;;-146.77;100.00
45763;BME280;37512;52.408;13.356;2023-05-01T11:23:37;70141.72;;;-146.77;100.00
45763;BME280;37512;52.408;13.356;2023-05-01T11:27:38;70141.72;;;-146.77;100.00
45763;BME280;37512;52.408;13.356;2023-05-01T11:31:40;70141.72;;;-146.77;100.00
45763;BME280;37512;52.408;13.356;2023-05-01T11:35:42;70141.72;;;-146.77;100.00
45763;BME280;37512;52.408;13.356;2023-05-01T11:39:50;70141.72;;;-146.77;100.00
45763;BME280;37512;52.408;13.356;2023-05-01T11:43:56;70141.72;;;-146.77;100.00
45763;BME280;37512;52.408;13.356;2023-05-01T11:47:58;70141.72;;;-146.77;100.00
45763;BME280;37512;52.408;13.356;2023-05-01T11:52:04;70141.72;;;-146.77;100.00
45763;BME280;37512;52.408;13.356;2023-05-01T11:56:26;70141.72;;;-146.77;100.00
45763;BME280;37512;52.408;13.356;2023-05-01T12:00:33;70141.72;;;-146.77;100.00
45763;BME280;37512;52.408;13.356;2023-05-01T12:04:36;70141.72;;;-146.77;100.00
45763;BME280;37512;52.408;13.356;2023-05-01T12:08:43;70141.72;;;-146.77;100.00
45763;BME280;37512;52.408;13.356;2023-05-01T12:12:45;70141.72;;;-146.77;100.00
45763;BME280;37512;52.408;13.356;2023-05-01T12:16:47;70141.72;;;-146.77;100.00
45763;BME280;37512;52.408;13.356;2023-05-01T12:20:51;70141.72;;;-146.77;100.00
45763;BME280;37512;52.408;13.356;2023-05-01T12:24:53;70141.72;;;-146.77;100.00
45763;BME280;37512;52.408;13.356;2023-05-01T12:29:00;70141.72;;;-146.77;100.00
45763;BME280;37512;52.408;13.356;2023-05-01T12:33:28;70141.72;;;-146.77;100.00
45763;BME280;37512;52.408;13.356;2023-05-01T12:37:33;70141.72;;;-146.77;100.00
45763;BME280;37512;52.408;13.356;2023-05-01T12:41:36;70141.72;;;-146.77;100.00
45763;BME280;37512;52.408;13.356;2023-05-01T12:45:38;70141.72;;;-146.77;100.00
45763;BME280;37512;52.408;13.356;2023-05-01T12:49:40;70141.72;;;-146.77;100.00
45763;BME280;37512;52.408;13.356;2023-05-01T12:53:42;70141.72;;;-146.77;100.00
45763;BME280;37512;52.408;13.356;2023-05-01T12:57:52;70141.72;;;-146.77;100.00
45763;BME280;37512;52.408;13.356;2023-05-01T13:02:02;70141.72;;;-146.77;100.00
45763;BME280;37512;52.408;13.356;2023-05-01T13:06:05;70141.72;;;-146.77;100.00
45763;BME280;37512;52.408;13.356;2023-05-01T13:10:07;70141.72;;;-146.77;100.00
45763;BME280;37512;52.408;13.356;2023-05-01T13:14:09;70141.72;;;-146.77;100.00
45763;BME280;37512;52.408;13.356;2023-05-01T13:18:11;70141.72;;;-146.77;100.00
45763;BME280;37512;52.408;13.356;2023-05-01T13:22:13;70141.72;;;-146.77;100.00
45763;BME280;37512;52.408;13.356;2023-05-01T13:26:15;70141.72;;;-146.77;100.00
45763;BME280;37512;52.408;13.356;2023-05-01T13:30:18;70141.72;;;-146.77;100.00
45763;BME280;37512;52.408;13.356;2023-05-01T13:34:30;70141.72;;;-146.77;100.00
45763;BME280;37512;52.408;13.356;2023-05-01T13:38:40;70141.72;;;-146.77;100.00
45763;BME280;37512;52.408;13.356;2023-05-01T13:42:42;70141.72;;;-146.77;100.00
45763;BME280;37512;52.408;13.356;2023-05-01T13:46:44;70141.72;;;-146.77;100.00
45763;BME280;37512;52.408;13.356;2023-05-01T13:50:46;70141.72;;;-146.77;100.00
45763;BME280;37512;52.408;13.356;2023-05-01T13:54:49;70141.72;;;-146.77;100.00
45763;BME280;37512;52.408;13.356;2023-05-01T13:58:53;70141.72;;;-146.77;100.00
45763;BME280;37512;52.408;13.356;2023-05-01T14:02:54;70141.72;;;-146.77;100.00
45763;BME280;37512;52.408;13.356;2023-05-01T14:06:56;70141.72;;;-146.77;100.00
45763;BME280;37512;52.408;13.356;2023-05-01T14:11:04;70141.72;;;-146.77;100.00
45763;BME280;37512;52.408;13.356;2023-05-01T14:15:09;70141.72;;;-146.77;100.00
45763;BME280;37512;52.408;13.356;2023-05-01T14:19:14;70141.72;;;-146.77;100.00
45763;BME280;37512;52.408;13.356;2023-05-01T14:23:17;70141.72;;;-146.77;100.00
45763;BME280;37512;52.408;13.356;2023-05-01T14:27:21;70141.72;;;-146.77;100.00
45763;BME280;37512;52.408;13.356;2023-05-01T14:31:26;70141.72;;;-146.77;100.00
45763;BME280;37512;52.408;13.356;2023-05-01T14:35:29;70141.72;;;-146.77;100.00
45763;BME280;37512;52.408;13.356;2023-05-01T14:39:31;70141.72;;;-146.77;100.00
45763;BME280;37512;52.408;13.356;2023-05-01T14:43:33;70141.72;;;-146.77;100.00
45763;BME280;37512;52.408;13.356;2023-05-01T14:47:37;70141.72;;;-146.77;100.00
45763;BME280;37512;52.408;13.356;2023-05-01T14:51:39;70141.72;;;-146.77;100.00
45763;BME280;37512;52.408;13.356;2023-05-01T14:55:41;70141.72;;;-146.77;100.00
45763;BME280;37512;52.408;13.356;2023-05-01T14:59:43;70141.72;;;-146.77;100.00
45763;BME280;37512;52.408;13.356;2023-05-01T15:03:45;70141.72;;;-146.77;100.00
45763;BME280;37512;52.408;13.356;2023-05-01T15:07:47;70141.72;;;-146.77;100.00
45763;BME280;37512;52.408;13.356;2023-05-01T15:11:48;70141.72;;;-146.77;100.00
45763;BME280;37512;52.408;13.356;2023-05-01T15:15:50;70141.72;;;-146.77;100.00
45763;BME280;37512;52.408;13.356;2023-05-01T15:19:53;70141.72;;;-146.77;100.00
45763;BME280;37512;52.408;13.356;2023-05-01T15:23:54;70141.72;;;-146.77;100.00
45763;BME280;37512;52.408;13.356;2023-05-01T15:27:57;70141.72;;;-146.77;100.00
45763;BME280;37512;52.408;13.356;2023-05-01T15:31:58;70141.72;;;-146.77;100.00
45763;BME280;37512;52.408;13.356;2023-05-01T15:36:12;70141.72;;;-146.77;100.00
45763;BME280;37512;52.408;13.356;2023-05-01T15:40:13;70141.72;;;-146.77;100.00
45763;BME280;37512;52.408;13.356;2023-05-01T15:44:15;70141.72;;;-146.77;100.00
45763;BME280;37512;52.408;13.356;2023-05-01T15:48:17;70141.72;;;-146.77;100.00
45763;BME280;37512;52.408;13.356;2023-05-01T15:52:18;70141.72;;;-146.77;100.00
45763;BME280;37512;52.408;13.356;2023-05-01T15:56:20;70141.72;;;-146.77;100.00
45763;BME280;37512;52.408;13.356;2023-05-01T16:00:22;70141.72;;;-146.77;100.00
45763;BME280;37512;52.408;13.356;2023-05-01T16:04:23;70141.72;;;-146.77;100.00
45763;BME280;37512;52.408;13.356;2023-05-01T16:08:25;70141.72;;;-146.77;100.00
45763;BME280;37512;52.408;13.356;2023-05-01T16:12:27;70141.72;;;-146.77;100.00
45763;BME280;37512;52.408;13.356;2023-05-01T16:16:28;70141.72;;;-146.77;100.00
45763;BME280;37512;52.408;13.356;2023-05-01T16:20:38;70141.72;;;-146.77;100.00
45763;BME280;37512;52.408;13.356;2023-05-01T16:24:42;70141.72;;;-146.77;100.00
45763;BME280;37512;52.408;13.356;2023-05-01T16:28:43;70141.72;;;-146.77;100.00
45763;BME280;37512;52.408;13.356;2023-05-01T16:32:45;70141.72;;;-146.77;100.00
45763;BME280;37512;52.408;13.356;2023-05-01T16:36:46;70141.72;;;-146.77;100.00
45763;BME280;37512;52.408;13.356;2023-05-01T16:40:48;70141.72;;;-146.77;100.00
45763;BME280;37512;52.408;13.356;2023-05-01T16:44:49;70141.72;;;-146.77;100.00
45763;BME280;37512;52.408;13.356;2023-05-01T16:48:51;70141.72;;;-146.77;100.00
45763;BME280;37512;52.408;13.356;2023-05-01T16:52:53;70141.72;;;-146.77;100.00
45763;BME280;37512;52.408;13.356;2023-05-01T16:56:55;70141.72;;;-146.77;100.00
45763;BME280;37512;52.408;13.356;2023-05-01T17:00:56;70141.72;;;-146.77;100.00
45763;BME280;37512;52.408;13.356;2023-05-01T17:04:58;70141.72;;;-146.77;100.00
45763;BME280;37512;52.408;13.356;2023-05-01T17:08:59;70141.72;;;-146.77;100.00
45763;BME280;37512;52.408;13.356;2023-05-01T17:13:01;70141.72;;;-146.77;100.00
45763;BME280;37512;52.408;13.356;2023-05-01T17:17:02;70141.72;;;-146.77;100.00
45763;BME280;37512;52.408;13.356;2023-05-01T17:21:04;70141.72;;;-146.77;100.00
45763;BME280;37512;52.408;13.356;2023-05-01T17:25:07;70141.72;;;-146.77;100.00
45763;BME280;37512;52.408;13.356;2023-05-01T17:29:08;70141.72;;;-146.77;100.00
45763;BME280;37512;52.408;13.356;2023-05-01T17:33:10;70141.72;;;-146.77;100.00
45763;BME280;37512;52.408;13.356;2023-05-01T17:37:11;70141.72;;;-146.77;100.00
45763;BME280;37512;52.408;13.356;2023-05-01T17:41:14;70141.72;;;-146.77;100.00
45763;BME280;37512;52.408;13.356;2023-05-01T17:45:17;70141.72;;;-146.77;100.00
45763;BME280;37512;52.408;13.356;2023-05-01T17:49:19;70141.72;;;-146.77;100.00
45763;BME280;37512;52.408;13.356;2023-05-01T17:53:20;70141.72;;;-146.77;100.00
45763;BME280;37512;52.408;13.356;2023-05-01T17:57:24;70141.72;;;-146.77;100.00
45763;BME280;37512;52.408;13.356;2023-05-01T18:01:25;70141.72;;;-146.77;100.00
45763;BME280;37512;52.408;13.356;2023-05-01T18:05:28;70141.72;;;-146.77;100.00
45763;BME280;37512;52.408;13.356;2023-05-01T18:09:30;70141.72;;;-146.77;100.00
45763;BME280;37512;52.408;13.356;2023-05-01T18:13:31;70141.72;;;-146.77;100.00
45763;BME280;37512;52.408;13.356;2023-05-01T18:17:38;70141.72;;;-146.77;100.00
45763;BME280;37512;52.408;13.356;2023-05-01T18:21:39;70141.72;;;-146.77;100.00
45763;BME280;37512;52.408;13.356;2023-05-01T18:25:41;70141.72;;;-146.77;100.00
45763;BME280;37512;52.408;13.356;2023-05-01T18:29:42;70141.72;;;-146.77;100.00
45763;BME280;37512;52.408;13.356;2023-05-01T18:33:44;70141.72;;;-146.77;100.00
45763;BME280;37512;52.408;13.356;2023-05-01T18:37:45;70141.72;;;-146.77;100.00
45763;BME280;37512;52.408;13.356;2023-05-01T18:41:48;70141.72;;;-146.77;100.00
45763;BME280;37512;52.408;13.356;2023-05-01T18:45:49;70141.72;;;-146.77;100.00
45763;BME280;37512;52.408;13.356;2023-05-01T18:49:51;70141.72;;;-146.77;100.00
45763;BME280;37512;52.408;13.356;2023-05-01T18:53:53;70141.72;;;-146.77;100.00
45763;BME280;37512;52.408;13.356;2023-05-01T18:57:54;70141.72;;;-146.77;100.00
45763;BME280;37512;52.408;13.356;2023-05-01T19:01:57;70141.72;;;-146.77;100.00
45763;BME280;37512;52.408;13.356;2023-05-01T19:05:58;70141.72;;;-146.77;100.00
45763;BME280;37512;52.408;13.356;2023-05-01T19:10:00;70141.72;;;-146.77;100.00
45763;BME280;37512;52.408;13.356;2023-05-01T19:14:02;70141.72;;;-146.77;100.00
45763;BME280;37512;52.408;13.356;2023-05-01T19:18:04;70141.72;;;-146.77;100.00
45763;BME280;37512;52.408;13.356;2023-05-01T19:22:05;70141.72;;;-146.77;100.00
45763;BME280;37512;52.408;13.356;2023-05-01T19:26:08;70141.72;;;-146.77;100.00
45763;BME280;37512;52.408;13.356;2023-05-01T19:30:09;70141.72;;;-146.77;100.00
45763;BME280;37512;52.408;13.356;2023-05-01T19:34:11;70141.72;;;-146.77;100.00
45763;BME280;37512;52.408;13.356;2023-05-01T19:38:12;70141.72;;;-146.77;100.00
45763;BME280;37512;52.408;13.356;2023-05-01T19:42:14;70141.72;;;-146.77;100.00
45763;BME280;37512;52.408;13.356;2023-05-01T19:46:16;70141.72;;;-146.77;100.00
45763;BME280;37512;52.408;13.356;2023-05-01T19:50:17;70141.72;;;-146.77;100.00
45763;BME280;37512;52.408;13.356;2023-05-01T19:54:20;70141.72;;;-146.77;100.00
45763;BME280;37512;52.408;13.356;2023-05-01T19:58:22;70141.72;;;-146.77;100.00
45763;BME280;37512;52.408;13.356;2023-05-01T20:02:26;70141.72;;;-146.77;100.00
45763;BME280;37512;52.408;13.356;2023-05-01T20:06:28;70141.72;;;-146.77;100.00
45763;BME280;37512;52.408;13.356;2023-05-01T20:10:30;70141.72;;;-146.77;100.00
45763;BME280;37512;52.408;13.356;2023-05-01T20:14:31;70141.72;;;-146.77;100.00
45763;BME280;37512;52.408;13.356;2023-05-01T20:18:34;70141.72;;;-146.77;100.00
45763;BME280;37512;52.408;13.356;2023-05-01T20:22:36;70141.72;;;-146.77;100.00
45763;BME280;37512;52.408;13.356;2023-05-01T20:26:37;70141.72;;;-146.77;100.00
45763;BME280;37512;52.408;13.356;2023-05-01T20:30:39;70141.72;;;-146.77;100.00
45763;BME280;37512;52.408;13.356;2023-05-01T20:34:41;70141.72;;;-146.77;100.00
45763;BME280;37512;52.408;13.356;2023-05-01T20:38:44;70141.72;;;-146.77;100.00
45763;BME280;37512;52.408;13.356;2023-05-01T20:42:46;70141.72;;;-146.77;100.00
45763;BME280;37512;52.408;13.356;2023-05-01T20:46:48;70141.72;;;-146.77;100.00
45763;BME280;37512;52.408;13.356;2023-05-01T20:50:49;70141.72;;;-146.77;100.00
45763;BME280;37512;52.408;13.356;2023-05-01T20:54:51;70141.72;;;-146.77;100.00
45763;BME280;37512;52.408;13.356;2023-05-01T20:58:52;70141.72;;;-146.77;100.00
45763;BME280;37512;52.408;13.356;2023-05-01T21:02:54;70141.72;;;-146.77;100.00